Belle Valley, OH (43717)

7:55 AM EST on December 28, 2014 (GMT -0500)
APRSWXNET Senecaville OH US | Change Station
CLOSE
Current Station
Personal Weather Station
Location: Buffalo, OH
Elevation: 941 ft
Nearby Weather Stations

Elev 941 ft 39.90 °N, 81.50 °W | Updated 20 minutes ago

Overcast
Overcast
40 °F
Feels Like 40 °F
N
3
Wind Variable Wind from NNW
Gusts 11.0 mph

Today
High -- | Low -- °F
--% Chance of Precip.
Yesterday
High -- | Low -- °F
Precip. -- in
7:46 AM 5:09 PM
Waxing Crescent, 47% visible
Pressure 30.06 in
Visibility 10.0 miles
Clouds Few 2100 ft
Few 2600 ft
Overcast 3000 ft
Windchill 40 °F
Dew Point 38 °F
Humidity 92%
Rainfall 0.25 in
Snow Depth Not available.
UV 0 out of 12
Pollen .10 out of 12
Air Quality Not available.
Flu Activity Not available.
SPECI KZZV 281248Z AUTO 32007KT 10SM FEW021 FEW026 OVC030 03/02 A3006 RMK AO2 RAE12 P0001

More Conditions Fewer Conditions

Pressure 30.06 in
Visibility 10.0 miles
Clouds Few 2100 ft
Few 2600 ft
Overcast 3000 ft
Windchill 40 °F
Dew Point 38 °F
Humidity 92%
Rainfall 0.25 in
Snow Depth Not available.
UV 0 out of 12
Pollen .10 out of 12
Air Quality Not available.
Flu Activity Not available.
SPECI KZZV 281248Z AUTO 32007KT 10SM FEW021 FEW026 OVC030 03/02 A3006 RMK AO2 RAE12 P0001

More Conditions Fewer Conditions

10-Day Weather Forecast

Almanac

Astronomy

Dec. 28, 2014 Rise Set
Actual Time
Civil Twilight
Nautical Twilight
Astronomical Twilight
Moon
Length of Visible Light
Length of Day
Tomorrow will be .
, % of the Moon is Illuminated

Today's Extremes

State Highs State Lows

Community

WunderPhotos

Upload Photos

1,781,249 photos uploaded!

WunderBlogs® & News

Nearby

Air Quality

  Air Quality AQ Index Pollutant
Not available.

Snow Depth

Station Depth Elevation

Earthquake Activity

City Distance Mag. Time & Date
Minimum magnitude displayed is 2.5.

Coastal Water Temperatures

Place Temperature

Nearby Weather Stations